sensor_id;sensor_type;location;lat;lon;timestamp;pressure;altitude;pressure_sealevel;temperature;humidity
13952;BME280;39535;52.192;9.886;2022-08-01T00:01:56;100231.19;;;20.11;95.30
13952;BME280;39535;52.192;9.886;2022-08-01T00:04:23;100235.38;;;20.15;94.89
13952;BME280;39535;52.192;9.886;2022-08-01T00:06:50;100239.16;;;20.11;94.96
13952;BME280;39535;52.192;9.886;2022-08-01T00:09:17;100235.19;;;20.18;94.69
13952;BME280;39535;52.192;9.886;2022-08-01T00:11:43;100232.31;;;20.21;95.00
13952;BME280;39535;52.192;9.886;2022-08-01T00:14:10;100221.72;;;20.21;95.01
13952;BME280;39535;52.192;9.886;2022-08-01T00:16:36;100228.75;;;20.22;94.66
13952;BME280;39535;52.192;9.886;2022-08-01T00:19:03;100240.00;;;20.26;94.52
13952;BME280;39535;52.192;9.886;2022-08-01T00:21:29;100223.34;;;20.10;95.12
13952;BME280;39535;52.192;9.886;2022-08-01T00:23:57;100217.03;;;20.12;95.47
13952;BME280;39535;52.192;9.886;2022-08-01T00:26:24;100221.09;;;20.18;94.85
13952;BME280;39535;52.192;9.886;2022-08-01T00:28:50;100227.16;;;20.20;94.78
13952;BME280;39535;52.192;9.886;2022-08-01T00:31:19;100220.03;;;20.20;95.16
13952;BME280;39535;52.192;9.886;2022-08-01T00:33:46;100203.47;;;20.17;95.68
13952;BME280;39535;52.192;9.886;2022-08-01T00:36:13;100213.69;;;20.23;95.05
13952;BME280;39535;52.192;9.886;2022-08-01T00:38:39;100212.38;;;20.16;95.31
13952;BME280;39535;52.192;9.886;2022-08-01T00:41:07;100187.28;;;20.07;96.55
13952;BME280;39535;52.192;9.886;2022-08-01T00:43:33;100194.84;;;20.13;95.58
13952;BME280;39535;52.192;9.886;2022-08-01T00:45:59;100174.13;;;20.06;96.88
13952;BME280;39535;52.192;9.886;2022-08-01T00:48:26;100189.47;;;20.15;96.54
13952;BME280;39535;52.192;9.886;2022-08-01T00:50:52;100198.56;;;20.11;96.37
13952;BME280;39535;52.192;9.886;2022-08-01T00:53:19;100193.84;;;20.16;95.81
13952;BME280;39535;52.192;9.886;2022-08-01T00:55:46;100197.03;;;20.21;95.81
13952;BME280;39535;52.192;9.886;2022-08-01T00:58:15;100201.28;;;20.23;95.50
13952;BME280;39535;52.192;9.886;2022-08-01T01:00:42;100205.44;;;20.28;95.33
13952;BME280;39535;52.192;9.886;2022-08-01T01:03:08;100199.88;;;20.18;95.78
13952;BME280;39535;52.192;9.886;2022-08-01T01:05:40;100200.63;;;20.20;95.54
13952;BME280;39535;52.192;9.886;2022-08-01T01:08:13;100195.53;;;20.17;96.21
13952;BME280;39535;52.192;9.886;2022-08-01T01:10:46;100135.09;;;19.80;99.09
13952;BME280;39535;52.192;9.886;2022-08-01T01:13:19;100132.44;;;19.80;99.81
13952;BME280;39535;52.192;9.886;2022-08-01T01:15:51;100131.31;;;19.84;99.42
13952;BME280;39535;52.192;9.886;2022-08-01T01:18:23;100114.06;;;19.63;100.00
13952;BME280;39535;52.192;9.886;2022-08-01T01:20:57;100092.88;;;19.34;100.00
13952;BME280;39535;52.192;9.886;2022-08-01T01:23:39;100074.03;;;18.96;100.00
13952;BME280;39535;52.192;9.886;2022-08-01T01:26:29;100093.94;;;18.87;100.00
13952;BME280;39535;52.192;9.886;2022-08-01T01:29:05;100108.94;;;18.87;100.00
13952;BME280;39535;52.192;9.886;2022-08-01T01:31:36;100133.63;;;18.71;100.00
13952;BME280;39535;52.192;9.886;2022-08-01T01:34:09;100164.16;;;18.61;100.00
13952;BME280;39535;52.192;9.886;2022-08-01T01:36:38;100176.00;;;18.70;100.00
13952;BME280;39535;52.192;9.886;2022-08-01T01:39:06;100193.06;;;18.64;100.00
13952;BME280;39535;52.192;9.886;2022-08-01T01:41:33;100198.97;;;18.53;100.00
13952;BME280;39535;52.192;9.886;2022-08-01T01:44:04;100201.50;;;18.55;100.00
13952;BME280;39535;52.192;9.886;2022-08-01T01:46:31;100211.66;;;18.46;100.00
13952;BME280;39535;52.192;9.886;2022-08-01T01:48:59;100214.56;;;18.42;100.00
13952;BME280;39535;52.192;9.886;2022-08-01T01:51:28;100215.25;;;18.45;100.00
13952;BME280;39535;52.192;9.886;2022-08-01T01:53:55;100212.09;;;18.55;100.00
13952;BME280;39535;52.192;9.886;2022-08-01T01:56:22;100209.88;;;18.47;100.00
13952;BME280;39535;52.192;9.886;2022-08-01T01:58:51;100212.84;;;18.57;100.00
13952;BME280;39535;52.192;9.886;2022-08-01T02:01:21;100206.22;;;18.65;100.00
13952;BME280;39535;52.192;9.886;2022-08-01T02:03:48;100210.81;;;18.62;100.00
13952;BME280;39535;52.192;9.886;2022-08-01T02:06:16;100202.19;;;18.58;100.00
13952;BME280;39535;52.192;9.886;2022-08-01T02:08:44;100201.78;;;18.66;100.00
13952;BME280;39535;52.192;9.886;2022-08-01T02:11:11;100205.59;;;18.60;100.00
13952;BME280;39535;52.192;9.886;2022-08-01T02:13:52;100199.22;;;18.64;100.00
13952;BME280;39535;52.192;9.886;2022-08-01T02:16:23;100203.22;;;18.56;100.00
13952;BME280;39535;52.192;9.886;2022-08-01T02:18:53;100204.59;;;18.47;100.00
13952;BME280;39535;52.192;9.886;2022-08-01T02:21:23;100206.56;;;18.59;100.00
13952;BME280;39535;52.192;9.886;2022-08-01T02:23:51;100204.91;;;18.73;100.00
13952;BME280;39535;52.192;9.886;2022-08-01T02:26:22;100212.75;;;18.74;100.00
13952;BME280;39535;52.192;9.886;2022-08-01T02:28:53;100205.03;;;18.71;100.00
13952;BME280;39535;52.192;9.886;2022-08-01T02:31:23;100215.31;;;18.76;100.00
13952;BME280;39535;52.192;9.886;2022-08-01T02:33:56;100204.00;;;18.58;100.00
13952;BME280;39535;52.192;9.886;2022-08-01T02:36:25;100202.53;;;18.68;100.00
13952;BME280;39535;52.192;9.886;2022-08-01T02:38:56;100212.38;;;18.82;100.00
13952;BME280;39535;52.192;9.886;2022-08-01T02:41:24;100218.16;;;18.89;100.00
13952;BME280;39535;52.192;9.886;2022-08-01T02:43:53;100217.13;;;18.91;100.00
13952;BME280;39535;52.192;9.886;2022-08-01T02:46:26;100225.81;;;18.77;100.00
13952;BME280;39535;52.192;9.886;2022-08-01T02:48:55;100231.97;;;18.78;100.00
13952;BME280;39535;52.192;9.886;2022-08-01T02:51:25;100228.81;;;18.39;100.00
13952;BME280;39535;52.192;9.886;2022-08-01T02:53:54;100229.81;;;18.37;100.00
13952;BME280;39535;52.192;9.886;2022-08-01T02:56:22;100228.97;;;18.36;100.00
13952;BME280;39535;52.192;9.886;2022-08-01T02:58:50;100236.53;;;18.11;100.00
13952;BME280;39535;52.192;9.886;2022-08-01T03:01:19;100241.28;;;18.04;100.00
13952;BME280;39535;52.192;9.886;2022-08-01T03:03:48;100243.81;;;18.05;100.00
13952;BME280;39535;52.192;9.886;2022-08-01T03:06:15;100246.38;;;18.07;100.00
13952;BME280;39535;52.192;9.886;2022-08-01T03:08:42;100249.44;;;17.99;100.00
13952;BME280;39535;52.192;9.886;2022-08-01T03:11:11;100246.31;;;18.09;100.00
13952;BME280;39535;52.192;9.886;2022-08-01T03:13:40;100250.41;;;18.14;100.00
13952;BME280;39535;52.192;9.886;2022-08-01T03:16:08;100253.91;;;18.15;100.00
13952;BME280;39535;52.192;9.886;2022-08-01T03:18:36;100256.69;;;17.96;100.00
13952;BME280;39535;52.192;9.886;2022-08-01T03:21:05;100259.81;;;17.86;100.00
13952;BME280;39535;52.192;9.886;2022-08-01T03:23:36;100274.31;;;17.95;100.00
13952;BME280;39535;52.192;9.886;2022-08-01T03:26:03;100276.53;;;18.03;100.00
13952;BME280;39535;52.192;9.886;2022-08-01T03:28:31;100274.78;;;18.19;100.00
13952;BME280;39535;52.192;9.886;2022-08-01T03:30:58;100281.34;;;18.12;100.00
13952;BME280;39535;52.192;9.886;2022-08-01T03:33:26;100272.41;;;18.15;100.00
13952;BME280;39535;52.192;9.886;2022-08-01T03:35:54;100284.22;;;18.08;100.00
13952;BME280;39535;52.192;9.886;2022-08-01T03:38:23;100286.19;;;18.04;100.00
13952;BME280;39535;52.192;9.886;2022-08-01T03:40:53;100291.63;;;18.01;100.00
13952;BME280;39535;52.192;9.886;2022-08-01T03:43:26;100300.88;;;18.10;100.00
13952;BME280;39535;52.192;9.886;2022-08-01T03:45:59;100301.34;;;18.00;100.00
13952;BME280;39535;52.192;9.886;2022-08-01T03:48:30;100301.09;;;18.05;100.00
13952;BME280;39535;52.192;9.886;2022-08-01T03:51:05;100299.72;;;17.98;100.00
13952;BME280;39535;52.192;9.886;2022-08-01T03:53:35;100299.91;;;18.11;100.00
13952;BME280;39535;52.192;9.886;2022-08-01T03:56:04;100294.66;;;17.93;100.00
13952;BME280;39535;52.192;9.886;2022-08-01T03:58:35;100301.66;;;17.94;100.00
13952;BME280;39535;52.192;9.886;2022-08-01T04:01:02;100298.94;;;17.96;100.00
13952;BME280;39535;52.192;9.886;2022-08-01T04:03:30;100301.03;;;17.89;100.00
13952;BME280;39535;52.192;9.886;2022-08-01T04:05:56;100300.25;;;17.87;100.00
13952;BME280;39535;52.192;9.886;2022-08-01T04:08:35;100305.75;;;17.82;100.00
13952;BME280;39535;52.192;9.886;2022-08-01T04:11:02;100307.47;;;17.83;100.00
13952;BME280;39535;52.192;9.886;2022-08-01T04:13:28;100312.75;;;17.83;100.00
13952;BME280;39535;52.192;9.886;2022-08-01T04:15:54;100317.72;;;17.90;100.00
13952;BME280;39535;52.192;9.886;2022-08-01T04:18:22;100308.09;;;17.89;100.00
13952;BME280;39535;52.192;9.886;2022-08-01T04:20:48;100303.44;;;17.76;100.00
13952;BME280;39535;52.192;9.886;2022-08-01T04:23:16;100310.41;;;17.77;100.00
13952;BME280;39535;52.192;9.886;2022-08-01T04:25:45;100315.16;;;17.71;100.00
13952;BME280;39535;52.192;9.886;2022-08-01T04:28:14;100319.66;;;17.69;100.00
13952;BME280;39535;52.192;9.886;2022-08-01T04:30:46;100327.56;;;17.69;100.00
13952;BME280;39535;52.192;9.886;2022-08-01T04:33:14;100333.00;;;17.65;100.00
13952;BME280;39535;52.192;9.886;2022-08-01T04:35:43;100334.00;;;17.63;100.00
13952;BME280;39535;52.192;9.886;2022-08-01T04:38:12;100334.00;;;17.63;100.00
13952;BME280;39535;52.192;9.886;2022-08-01T04:40:42;100341.63;;;17.69;100.00
13952;BME280;39535;52.192;9.886;2022-08-01T04:43:11;100351.03;;;17.75;100.00
13952;BME280;39535;52.192;9.886;2022-08-01T04:45:38;100348.53;;;17.72;100.00
13952;BME280;39535;52.192;9.886;2022-08-01T04:48:05;100353.66;;;17.75;100.00
13952;BME280;39535;52.192;9.886;2022-08-01T04:50:34;100350.25;;;17.73;100.00
13952;BME280;39535;52.192;9.886;2022-08-01T04:53:00;100350.84;;;17.78;100.00
13952;BME280;39535;52.192;9.886;2022-08-01T04:55:28;100360.44;;;17.80;100.00
13952;BME280;39535;52.192;9.886;2022-08-01T04:57:56;100358.56;;;17.82;100.00
13952;BME280;39535;52.192;9.886;2022-08-01T05:00:24;100365.34;;;17.88;100.00
13952;BME280;39535;52.192;9.886;2022-08-01T05:02:50;100370.78;;;18.02;100.00
13952;BME280;39535;52.192;9.886;2022-08-01T05:05:16;100370.16;;;17.97;100.00
13952;BME280;39535;52.192;9.886;2022-08-01T05:07:43;100373.09;;;17.91;100.00
13952;BME280;39535;52.192;9.886;2022-08-01T05:10:11;100371.16;;;17.95;100.00
13952;BME280;39535;52.192;9.886;2022-08-01T05:12:38;100370.31;;;17.94;100.00
13952;BME280;39535;52.192;9.886;2022-08-01T05:15:06;100358.09;;;18.09;100.00
13952;BME280;39535;52.192;9.886;2022-08-01T05:17:33;100372.66;;;18.18;100.00
13952;BME280;39535;52.192;9.886;2022-08-01T05:20:00;100378.47;;;18.07;100.00
13952;BME280;39535;52.192;9.886;2022-08-01T05:22:26;100371.69;;;18.19;100.00
13952;BME280;39535;52.192;9.886;2022-08-01T05:24:53;100370.38;;;18.28;100.00
13952;BME280;39535;52.192;9.886;2022-08-01T05:27:19;100378.00;;;18.16;100.00
13952;BME280;39535;52.192;9.886;2022-08-01T05:29:45;100380.56;;;18.18;100.00
13952;BME280;39535;52.192;9.886;2022-08-01T05:32:12;100380.47;;;18.19;100.00
13952;BME280;39535;52.192;9.886;2022-08-01T05:34:40;100373.31;;;18.21;100.00
13952;BME280;39535;52.192;9.886;2022-08-01T05:37:06;100377.81;;;18.19;100.00
13952;BME280;39535;52.192;9.886;2022-08-01T05:39:33;100370.47;;;18.26;100.00
13952;BME280;39535;52.192;9.886;2022-08-01T05:41:59;100381.09;;;18.24;100.00
13952;BME280;39535;52.192;9.886;2022-08-01T05:44:25;100380.13;;;18.43;100.00
13952;BME280;39535;52.192;9.886;2022-08-01T05:46:52;100381.00;;;18.43;100.00
13952;BME280;39535;52.192;9.886;2022-08-01T05:49:18;100383.91;;;18.55;100.00
13952;BME280;39535;52.192;9.886;2022-08-01T05:51:46;100383.94;;;18.37;100.00
13952;BME280;39535;52.192;9.886;2022-08-01T05:54:12;100387.09;;;18.28;100.00
13952;BME280;39535;52.192;9.886;2022-08-01T05:56:39;100387.16;;;18.26;100.00
13952;BME280;39535;52.192;9.886;2022-08-01T05:59:05;100390.44;;;18.32;100.00
13952;BME280;39535;52.192;9.886;2022-08-01T06:01:31;100394.84;;;18.31;100.00
13952;BME280;39535;52.192;9.886;2022-08-01T06:03:58;100395.41;;;18.20;100.00
13952;BME280;39535;52.192;9.886;2022-08-01T06:06:25;100396.19;;;18.05;100.00
13952;BME280;39535;52.192;9.886;2022-08-01T06:08:53;100404.03;;;17.89;100.00
13952;BME280;39535;52.192;9.886;2022-08-01T06:11:19;100402.88;;;17.76;100.00
13952;BME280;39535;52.192;9.886;2022-08-01T06:13:46;100407.69;;;17.86;100.00
13952;BME280;39535;52.192;9.886;2022-08-01T06:16:12;100408.38;;;17.90;100.00
13952;BME280;39535;52.192;9.886;2022-08-01T06:18:38;100419.50;;;17.97;100.00
13952;BME280;39535;52.192;9.886;2022-08-01T06:21:04;100420.34;;;17.97;100.00
13952;BME280;39535;52.192;9.886;2022-08-01T06:23:31;100418.84;;;17.92;100.00
13952;BME280;39535;52.192;9.886;2022-08-01T06:25:59;100423.34;;;17.90;100.00
13952;BME280;39535;52.192;9.886;2022-08-01T06:28:25;100423.84;;;17.98;100.00
13952;BME280;39535;52.192;9.886;2022-08-01T06:30:51;100430.28;;;17.92;100.00
13952;BME280;39535;52.192;9.886;2022-08-01T06:33:18;100436.75;;;18.04;100.00
13952;BME280;39535;52.192;9.886;2022-08-01T06:35:44;100436.56;;;18.07;100.00
13952;BME280;39535;52.192;9.886;2022-08-01T06:38:11;100436.06;;;18.18;100.00
13952;BME280;39535;52.192;9.886;2022-08-01T06:40:37;100434.25;;;18.36;100.00
13952;BME280;39535;52.192;9.886;2022-08-01T06:43:05;100426.31;;;18.53;100.00
13952;BME280;39535;52.192;9.886;2022-08-01T06:45:32;100427.34;;;18.66;100.00
13952;BME280;39535;52.192;9.886;2022-08-01T06:47:58;100423.34;;;18.59;100.00
13952;BME280;39535;52.192;9.886;2022-08-01T06:50:24;100423.44;;;18.58;100.00
13952;BME280;39535;52.192;9.886;2022-08-01T06:52:51;100424.13;;;18.61;100.00
13952;BME280;39535;52.192;9.886;2022-08-01T06:55:17;100420.75;;;18.75;100.00
13952;BME280;39535;52.192;9.886;2022-08-01T06:57:46;100427.03;;;18.73;100.00
13952;BME280;39535;52.192;9.886;2022-08-01T07:00:15;100423.03;;;18.83;100.00
13952;BME280;39535;52.192;9.886;2022-08-01T07:02:43;100429.94;;;18.85;100.00
13952;BME280;39535;52.192;9.886;2022-08-01T07:05:10;100422.06;;;18.84;100.00
13952;BME280;39535;52.192;9.886;2022-08-01T07:07:37;100428.38;;;18.81;100.00
13952;BME280;39535;52.192;9.886;2022-08-01T07:10:04;100431.81;;;18.66;100.00
13952;BME280;39535;52.192;9.886;2022-08-01T07:12:31;100432.53;;;18.52;100.00
13952;BME280;39535;52.192;9.886;2022-08-01T07:14:58;100432.78;;;18.30;100.00
13952;BME280;39535;52.192;9.886;2022-08-01T07:17:26;100435.88;;;18.21;100.00
13952;BME280;39535;52.192;9.886;2022-08-01T07:19:52;100434.47;;;18.31;100.00
13952;BME280;39535;52.192;9.886;2022-08-01T07:22:19;100436.13;;;18.34;100.00
13952;BME280;39535;52.192;9.886;2022-08-01T07:24:46;100440.84;;;18.27;100.00
13952;BME280;39535;52.192;9.886;2022-08-01T07:27:12;100454.16;;;18.08;100.00
13952;BME280;39535;52.192;9.886;2022-08-01T07:29:39;100446.34;;;17.88;100.00
13952;BME280;39535;52.192;9.886;2022-08-01T07:32:06;100444.72;;;17.85;100.00
13952;BME280;39535;52.192;9.886;2022-08-01T07:34:33;100457.47;;;17.94;100.00
13952;BME280;39535;52.192;9.886;2022-08-01T07:37:00;100452.13;;;17.96;100.00
13952;BME280;39535;52.192;9.886;2022-08-01T07:39:26;100452.97;;;17.96;100.00
13952;BME280;39535;52.192;9.886;2022-08-01T07:41:52;100461.28;;;17.89;100.00
13952;BME280;39535;52.192;9.886;2022-08-01T07:44:19;100458.78;;;18.03;100.00
13952;BME280;39535;52.192;9.886;2022-08-01T07:46:45;100458.97;;;18.17;100.00
13952;BME280;39535;52.192;9.886;2022-08-01T07:49:11;100453.97;;;18.11;100.00
13952;BME280;39535;52.192;9.886;2022-08-01T07:51:39;100463.56;;;18.14;100.00
13952;BME280;39535;52.192;9.886;2022-08-01T07:54:06;100464.88;;;18.22;100.00
13952;BME280;39535;52.192;9.886;2022-08-01T07:56:32;100465.66;;;18.24;100.00
13952;BME280;39535;52.192;9.886;2022-08-01T07:58:59;100463.25;;;18.20;100.00
13952;BME280;39535;52.192;9.886;2022-08-01T08:01:25;100473.44;;;18.10;100.00
13952;BME280;39535;52.192;9.886;2022-08-01T08:03:51;100466.50;;;18.25;100.00
13952;BME280;39535;52.192;9.886;2022-08-01T08:06:18;100474.44;;;18.25;100.00
13952;BME280;39535;52.192;9.886;2022-08-01T08:08:45;100481.97;;;18.33;100.00
13952;BME280;39535;52.192;9.886;2022-08-01T08:11:12;100480.66;;;18.41;100.00
13952;BME280;39535;52.192;9.886;2022-08-01T08:13:38;100486.09;;;18.56;100.00
13952;BME280;39535;52.192;9.886;2022-08-01T08:16:05;100495.59;;;18.60;100.00
13952;BME280;39535;52.192;9.886;2022-08-01T08:18:31;100484.00;;;18.80;100.00
13952;BME280;39535;52.192;9.886;2022-08-01T08:20:58;100492.91;;;18.95;100.00
13952;BME280;39535;52.192;9.886;2022-08-01T08:23:24;100488.09;;;19.03;100.00
13952;BME280;39535;52.192;9.886;2022-08-01T08:26:10;100500.53;;;19.01;100.00
13952;BME280;39535;52.192;9.886;2022-08-01T08:28:36;100522.53;;;19.01;100.00
13952;BME280;39535;52.192;9.886;2022-08-01T08:31:03;100527.28;;;18.95;100.00
13952;BME280;39535;52.192;9.886;2022-08-01T08:33:29;100530.84;;;19.11;100.00
13952;BME280;39535;52.192;9.886;2022-08-01T08:35:55;100544.75;;;18.99;100.00
13952;BME280;39535;52.192;9.886;2022-08-01T08:38:22;100548.31;;;18.98;100.00
13952;BME280;39535;52.192;9.886;2022-08-01T08:40:51;100537.56;;;19.01;100.00
13952;BME280;39535;52.192;9.886;2022-08-01T08:43:19;100507.78;;;18.97;100.00
13952;BME280;39535;52.192;9.886;2022-08-01T08:45:46;100535.13;;;18.79;100.00
13952;BME280;39535;52.192;9.886;2022-08-01T08:48:13;100546.31;;;18.85;100.00
13952;BME280;39535;52.192;9.886;2022-08-01T08:50:41;100540.22;;;19.01;100.00
13952;BME280;39535;52.192;9.886;2022-08-01T08:53:09;100537.78;;;18.96;100.00
13952;BME280;39535;52.192;9.886;2022-08-01T08:55:36;100523.00;;;19.10;100.00
13952;BME280;39535;52.192;9.886;2022-08-01T08:58:03;100525.19;;;19.01;100.00
13952;BME280;39535;52.192;9.886;2022-08-01T09:00:32;100534.34;;;19.12;100.00
13952;BME280;39535;52.192;9.886;2022-08-01T09:03:00;100568.81;;;19.10;100.00
13952;BME280;39535;52.192;9.886;2022-08-01T09:05:27;100564.38;;;19.11;100.00
13952;BME280;39535;52.192;9.886;2022-08-01T09:07:53;100577.13;;;19.20;100.00
13952;BME280;39535;52.192;9.886;2022-08-01T09:10:20;100590.81;;;19.28;100.00
13952;BME280;39535;52.192;9.886;2022-08-01T09:13:03;100618.69;;;19.18;99.69
13952;BME280;39535;52.192;9.886;2022-08-01T09:15:40;100668.06;;;19.19;96.70
13952;BME280;39535;52.192;9.886;2022-08-01T09:18:06;100699.44;;;19.27;96.04
13952;BME280;39535;52.192;9.886;2022-08-01T09:20:33;100707.97;;;19.14;95.42
13952;BME280;39535;52.192;9.886;2022-08-01T09:23:01;100706.41;;;19.45;96.05
13952;BME280;39535;52.192;9.886;2022-08-01T09:25:27;100685.75;;;19.69;96.46
13952;BME280;39535;52.192;9.886;2022-08-01T09:28:03;100724.25;;;19.59;94.46
13952;BME280;39535;52.192;9.886;2022-08-01T09:30:36;100701.72;;;19.68;95.56
13952;BME280;39535;52.192;9.886;2022-08-01T09:33:05;100733.59;;;19.49;93.76
13952;BME280;39535;52.192;9.886;2022-08-01T09:35:33;100757.66;;;19.44;92.79
13952;BME280;39535;52.192;9.886;2022-08-01T09:38:14;100732.13;;;19.60;93.73
13952;BME280;39535;52.192;9.886;2022-08-01T09:40:45;100769.41;;;19.56;92.25
13952;BME280;39535;52.192;9.886;2022-08-01T09:43:12;100768.41;;;19.41;92.09
13952;BME280;39535;52.192;9.886;2022-08-01T09:45:39;100751.75;;;19.56;92.82
13952;BME280;39535;52.192;9.886;2022-08-01T09:48:07;100782.56;;;19.57;91.51
13952;BME280;39535;52.192;9.886;2022-08-01T09:50:39;100778.69;;;19.47;91.54
13952;BME280;39535;52.192;9.886;2022-08-01T09:53:06;100778.69;;;19.64;91.65
13952;BME280;39535;52.192;9.886;2022-08-01T09:55:33;100763.66;;;19.65;91.91
13952;BME280;39535;52.192;9.886;2022-08-01T09:57:59;100765.94;;;19.73;91.76
13952;BME280;39535;52.192;9.886;2022-08-01T10:00:26;100772.22;;;19.70;91.60
13952;BME280;39535;52.192;9.886;2022-08-01T10:02:53;100784.75;;;19.67;91.45
13952;BME280;39535;52.192;9.886;2022-08-01T10:05:30;100779.06;;;19.57;91.32
13952;BME280;39535;52.192;9.886;2022-08-01T10:07:58;100808.59;;;19.49;89.83
13952;BME280;39535;52.192;9.886;2022-08-01T10:10:25;100830.72;;;19.65;89.38
13952;BME280;39535;52.192;9.886;2022-08-01T10:12:51;100818.09;;;19.53;90.29
13952;BME280;39535;52.192;9.886;2022-08-01T10:15:18;100849.34;;;19.28;88.43
13952;BME280;39535;52.192;9.886;2022-08-01T10:17:50;100846.16;;;19.21;89.05
13952;BME280;39535;52.192;9.886;2022-08-01T10:20:22;100807.75;;;19.12;90.26
13952;BME280;39535;52.192;9.886;2022-08-01T10:22:49;100811.47;;;19.08;90.21
13952;BME280;39535;52.192;9.886;2022-08-01T10:25:19;100818.34;;;19.12;89.05
13952;BME280;39535;52.192;9.886;2022-08-01T10:27:48;100808.09;;;19.23;89.66
13952;BME280;39535;52.192;9.886;2022-08-01T10:30:15;100835.50;;;19.40;88.33
13952;BME280;39535;52.192;9.886;2022-08-01T10:32:41;100864.63;;;19.40;87.67
13952;BME280;39535;52.192;9.886;2022-08-01T10:35:08;100833.72;;;19.40;88.18
13952;BME280;39535;52.192;9.886;2022-08-01T10:37:41;100854.75;;;19.43;87.02
13952;BME280;39535;52.192;9.886;2022-08-01T10:40:08;100861.16;;;19.57;87.63
13952;BME280;39535;52.192;9.886;2022-08-01T10:42:35;100862.56;;;19.64;86.22
13952;BME280;39535;52.192;9.886;2022-08-01T10:45:02;100902.88;;;19.71;85.77
13952;BME280;39535;52.192;9.886;2022-08-01T10:47:35;100870.72;;;19.78;86.58
13952;BME280;39535;52.192;9.886;2022-08-01T10:50:07;100891.69;;;19.64;85.63
13952;BME280;39535;52.192;9.886;2022-08-01T10:52:37;100883.72;;;19.83;86.03
13952;BME280;39535;52.192;9.886;2022-08-01T10:55:07;100840.94;;;19.73;88.05
13952;BME280;39535;52.192;9.886;2022-08-01T10:57:44;100813.56;;;19.55;88.19
13952;BME280;39535;52.192;9.886;2022-08-01T11:00:17;100839.13;;;19.56;87.11
13952;BME280;39535;52.192;9.886;2022-08-01T11:02:56;100860.47;;;19.53;86.64
13952;BME280;39535;52.192;9.886;2022-08-01T11:05:24;100863.25;;;19.50;86.58
13952;BME280;39535;52.192;9.886;2022-08-01T11:07:52;100897.66;;;19.50;84.83
13952;BME280;39535;52.192;9.886;2022-08-01T11:10:24;100955.50;;;19.59;83.14
13952;BME280;39535;52.192;9.886;2022-08-01T11:12:51;100962.88;;;19.72;83.15
13952;BME280;39535;52.192;9.886;2022-08-01T11:15:20;100949.72;;;19.88;83.35
13952;BME280;39535;52.192;9.886;2022-08-01T11:17:51;100962.94;;;20.07;82.89
13952;BME280;39535;52.192;9.886;2022-08-01T11:20:19;100971.81;;;20.40;82.73
13952;BME280;39535;52.192;9.886;2022-08-01T11:26:20;101082.50;;;21.07;78.58
13952;BME280;39535;52.192;9.886;2022-08-01T11:29:17;101112.19;;;20.62;77.57
13952;BME280;39535;52.192;9.886;2022-08-01T11:31:43;101104.09;;;20.66;77.77
13952;BME280;39535;52.192;9.886;2022-08-01T11:34:10;101082.56;;;20.53;78.65
13952;BME280;39535;52.192;9.886;2022-08-01T11:36:36;101054.88;;;20.58;79.09
13952;BME280;39535;52.192;9.886;2022-08-01T11:39:15;101052.38;;;20.55;78.86
13952;BME280;39535;52.192;9.886;2022-08-01T11:41:44;101012.50;;;20.57;79.53
13952;BME280;39535;52.192;9.886;2022-08-01T11:44:13;101027.72;;;20.88;79.10
13952;BME280;39535;52.192;9.886;2022-08-01T11:46:54;101057.03;;;21.53;77.77
13952;BME280;39535;52.192;9.886;2022-08-01T11:49:26;101157.69;;;22.07;74.27
13952;BME280;39535;52.192;9.886;2022-08-01T11:51:57;101254.97;;;22.60;71.01
13952;BME280;39535;52.192;9.886;2022-08-01T11:54:26;101351.88;;;22.56;70.09
13952;BME280;39535;52.192;9.886;2022-08-01T11:56:56;101364.31;;;22.23;68.35
13952;BME280;39535;52.192;9.886;2022-08-01T11:59:23;101345.38;;;22.11;69.57
13952;BME280;39535;52.192;9.886;2022-08-01T12:01:50;101306.03;;;21.50;70.31
13952;BME280;39535;52.192;9.886;2022-08-01T12:04:16;101234.66;;;21.25;72.34
13952;BME280;39535;52.192;9.886;2022-08-01T12:06:43;101188.78;;;21.05;72.93
13952;BME280;39535;52.192;9.886;2022-08-01T12:09:20;101167.50;;;20.51;74.40
13952;BME280;39535;52.192;9.886;2022-08-01T12:11:47;101122.59;;;20.48;75.16
13952;BME280;39535;52.192;9.886;2022-08-01T12:14:21;101088.22;;;20.64;75.36
13952;BME280;39535;52.192;9.886;2022-08-01T12:16:49;101085.88;;;20.58;75.54
13952;BME280;39535;52.192;9.886;2022-08-01T12:19:21;101095.09;;;20.86;74.30
13952;BME280;39535;52.192;9.886;2022-08-01T12:22:07;101168.19;;;21.61;72.13
13952;BME280;39535;52.192;9.886;2022-08-01T12:24:35;101226.13;;;22.37;70.40
13952;BME280;39535;52.192;9.886;2022-08-01T12:27:01;101322.53;;;23.06;65.94
13952;BME280;39535;52.192;9.886;2022-08-01T12:29:34;101403.78;;;23.91;63.90
13952;BME280;39535;52.192;9.886;2022-08-01T12:32:00;101542.34;;;23.45;61.52
13952;BME280;39535;52.192;9.886;2022-08-01T12:34:28;101487.75;;;23.52;63.75
13952;BME280;39535;52.192;9.886;2022-08-01T12:36:55;101477.78;;;23.24;62.90
13952;BME280;39535;52.192;9.886;2022-08-01T12:39:29;101448.84;;;22.84;64.40
13952;BME280;39535;52.192;9.886;2022-08-01T12:41:55;101384.88;;;22.86;65.92
13952;BME280;39535;52.192;9.886;2022-08-01T12:44:22;101383.81;;;22.56;65.22
13952;BME280;39535;52.192;9.886;2022-08-01T12:46:50;101366.00;;;22.41;66.06
13952;BME280;39535;52.192;9.886;2022-08-01T12:49:16;101351.47;;;22.31;65.81
13952;BME280;39535;52.192;9.886;2022-08-01T12:51:43;101325.50;;;22.18;65.61
13952;BME280;39535;52.192;9.886;2022-08-01T12:54:10;101328.06;;;22.37;65.75